Time;durP1;ratioP1;P1;durP2;ratioP2;P2;SDS_P1;SDS_P2;PMS_P1;PMS_P2;Temp;Humidity;BMP_temperature;BMP_pressure;BME280_temperature;BME280_humidity;BME280_pressure;Samples;Min_cycle;Max_cycle;Signal;HPM_P1;HPM_P2
2021/03/19 00:01:52;;;;;;;11.30;9.83;;;;;;;;;;5041309;28;20214;-78
2021/03/19 00:04:17;;;;;;;10.57;9.47;;;;;;;;;;5024351;28;20214;-78
2021/03/19 00:06:42;;;;;;;12.27;10.07;;;;;;;;;;5024232;28;20225;-78
2021/03/19 00:09:09;;;;;;;12.70;11.50;;;;;;;;;;5058238;28;20624;-78
2021/03/19 00:11:35;;;;;;;12.00;10.80;;;;;;;;;;5040396;28;20355;-78
2021/03/19 00:14:01;;;;;;;11.17;10.07;;;;;;;;;;5023969;28;20472;-78
2021/03/19 00:16:29;;;;;;;11.87;10.67;;;;;;;;;;5040379;28;20455;-78
2021/03/19 00:18:55;;;;;;;13.00;11.67;;;;;;;;;;5040783;28;20744;-78
2021/03/19 00:21:20;;;;;;;12.50;10.83;;;;;;;;;;5040090;28;20475;-77
2021/03/19 00:23:45;;;;;;;13.40;12.07;;;;;;;;;;5040418;28;20235;-78
2021/03/19 00:26:11;;;;;;;13.30;12.00;;;;;;;;;;5023988;28;20211;-78
2021/03/19 00:28:36;;;;;;;13.67;12.10;;;;;;;;;;5040428;28;20220;-78
2021/03/19 00:31:01;;;;;;;14.20;12.67;;;;;;;;;;5057678;28;20206;-78
2021/03/19 00:33:27;;;;;;;14.50;12.37;;;;;;;;;;5057009;28;20226;-77
2021/03/19 00:35:52;;;;;;;14.17;12.77;;;;;;;;;;5057329;28;20274;-78
2021/03/19 00:38:17;;;;;;;13.77;12.37;;;;;;;;;;5057713;28;20223;-78
2021/03/19 00:40:43;;;;;;;14.80;13.03;;;;;;;;;;5057494;28;20598;-77
2021/03/19 00:43:13;;;;;;;13.87;12.47;;;;;;;;;;5055273;28;20217;-77
2021/03/19 00:45:38;;;;;;;16.73;14.90;;;;;;;;;;5039953;28;20470;-78
2021/03/19 00:48:04;;;;;;;17.77;14.93;;;;;;;;;;5040013;28;20490;-78
2021/03/19 00:50:35;;;;;;;14.77;13.27;;;;;;;;;;5039391;28;20218;-78
2021/03/19 00:53:02;;;;;;;15.60;14.07;;;;;;;;;;5023731;28;20251;-78
2021/03/19 00:55:27;;;;;;;17.03;15.17;;;;;;;;;;5056636;28;20468;-78
2021/03/19 00:57:52;;;;;;;18.00;15.47;;;;;;;;;;5057125;28;20890;-78
2021/03/19 01:00:19;;;;;;;18.27;14.93;;;;;;;;;;5057053;28;20209;-78
2021/03/19 01:02:45;;;;;;;16.70;13.27;;;;;;;;;;5039542;28;20215;-79
2021/03/19 01:05:22;;;;;;;16.60;14.73;;;;;;;;;;5056721;28;20731;-78
2021/03/19 01:07:48;;;;;;;14.73;12.63;;;;;;;;;;5039384;28;20220;-77
2021/03/19 01:10:20;;;;;;;15.87;13.17;;;;;;;;;;5039867;28;20447;-77
2021/03/19 01:12:46;;;;;;;14.37;12.57;;;;;;;;;;5033112;28;20454;-78
2021/03/19 01:15:12;;;;;;;12.83;11.43;;;;;;;;;;5035763;28;20467;-78
2021/03/19 01:17:38;;;;;;;12.07;10.87;;;;;;;;;;5019597;28;20642;-78
2021/03/19 01:20:08;;;;;;;13.20;10.23;;;;;;;;;;5006859;28;20470;-78
2021/03/19 01:22:33;;;;;;;11.53;9.70;;;;;;;;;;5003158;28;20226;-78
2021/03/19 01:24:58;;;;;;;12.10;9.67;;;;;;;;;;5003342;28;20473;-78
2021/03/19 01:27:24;;;;;;;12.73;10.27;;;;;;;;;;5019438;28;20211;-78
2021/03/19 01:29:49;;;;;;;13.80;10.37;;;;;;;;;;5019486;28;20225;-78
2021/03/19 01:32:14;;;;;;;11.10;9.83;;;;;;;;;;5019408;28;20680;-78
2021/03/19 01:34:40;;;;;;;14.90;10.83;;;;;;;;;;5019079;28;20218;-78
2021/03/19 01:37:05;;;;;;;12.80;10.10;;;;;;;;;;5019294;28;20337;-77
2021/03/19 01:39:30;;;;;;;12.20;9.47;;;;;;;;;;5036150;28;20488;-78
2021/03/19 01:41:57;;;;;;;13.30;9.03;;;;;;;;;;5009130;28;20217;-78
2021/03/19 01:44:50;;;;;;;12.33;8.30;;;;;;;;;;5039442;28;20217;-78
2021/03/19 01:47:53;;;;;;;8.73;7.83;;;;;;;;;;5052152;28;20502;-78
2021/03/19 01:50:56;;;;;;;8.70;7.80;;;;;;;;;;5036499;28;20449;-79
2021/03/19 01:53:59;;;;;;;7.57;6.53;;;;;;;;;;5038979;28;20482;-78
2021/03/19 01:57:02;;;;;;;8.57;7.63;;;;;;;;;;5039863;28;20456;-78
2021/03/19 02:00:05;;;;;;;10.07;7.60;;;;;;;;;;5022784;28;20454;-78
2021/03/19 02:03:07;;;;;;;8.77;7.83;;;;;;;;;;5040105;28;20525;-78
2021/03/19 02:06:10;;;;;;;11.13;8.30;;;;;;;;;;5019999;28;20462;-78
2021/03/19 02:09:13;;;;;;;10.47;8.27;;;;;;;;;;5020177;28;20443;-78
2021/03/19 02:12:16;;;;;;;11.87;9.07;;;;;;;;;;5003006;28;20678;-78
2021/03/19 02:15:19;;;;;;;13.60;8.23;;;;;;;;;;5019604;28;20447;-78
2021/03/19 02:18:21;;;;;;;10.63;9.40;;;;;;;;;;5020085;28;20447;-78
2021/03/19 02:21:24;;;;;;;12.83;8.73;;;;;;;;;;5019942;28;20443;-78
2021/03/19 02:24:26;;;;;;;10.50;8.07;;;;;;;;;;5019738;28;20469;-78
2021/03/19 02:27:29;;;;;;;12.40;9.07;;;;;;;;;;5019909;28;20715;-78
2021/03/19 02:30:32;;;;;;;14.53;9.27;;;;;;;;;;5019460;28;20434;-78
2021/03/19 02:32:57;;;;;;;13.13;8.90;;;;;;;;;;5002344;28;20529;-78
2021/03/19 02:35:23;;;;;;;14.17;10.77;;;;;;;;;;5003189;28;20615;-77
2021/03/19 02:37:48;;;;;;;12.20;9.13;;;;;;;;;;4986025;28;20222;-78
2021/03/19 02:40:20;;;;;;;14.00;9.00;;;;;;;;;;5003039;28;20461;-77
2021/03/19 02:42:45;;;;;;;15.73;9.53;;;;;;;;;;5018607;28;20312;-77
2021/03/19 02:45:14;;;;;;;14.03;10.50;;;;;;;;;;5042184;28;20535;-78
2021/03/19 02:47:39;;;;;;;16.07;10.70;;;;;;;;;;5041649;28;20221;-78
2021/03/19 02:50:07;;;;;;;11.70;9.43;;;;;;;;;;5059540;28;20547;-78
2021/03/19 02:52:34;;;;;;;18.53;12.23;;;;;;;;;;5025461;28;20297;-76
2021/03/19 02:55:00;;;;;;;16.97;12.73;;;;;;;;;;5021615;28;20521;-76
2021/03/19 02:57:26;;;;;;;22.00;12.00;;;;;;;;;;5026902;28;20496;-76
2021/03/19 02:59:51;;;;;;;21.47;12.50;;;;;;;;;;5037768;28;20491;-76
2021/03/19 03:02:16;;;;;;;19.13;11.73;;;;;;;;;;5038570;28;20214;-76
2021/03/19 03:04:42;;;;;;;22.23;11.63;;;;;;;;;;5038308;28;20280;-75
2021/03/19 03:07:19;;;;;;;16.10;12.10;;;;;;;;;;5022230;28;20509;-76
2021/03/19 03:09:44;;;;;;;22.27;12.47;;;;;;;;;;5037928;28;20476;-76
2021/03/19 03:12:09;;;;;;;20.73;13.53;;;;;;;;;;5021586;28;20464;-76
2021/03/19 03:14:34;;;;;;;27.23;13.20;;;;;;;;;;5038964;28;20217;-76
2021/03/19 03:17:02;;;;;;;23.70;13.80;;;;;;;;;;5038667;28;20245;-75
2021/03/19 03:19:27;;;;;;;27.47;13.93;;;;;;;;;;5021894;28;20218;-75
2021/03/19 03:21:53;;;;;;;24.10;13.63;;;;;;;;;;5037716;28;20473;-76
2021/03/19 03:24:19;;;;;;;21.70;15.37;;;;;;;;;;5037676;28;20495;-75
2021/03/19 03:26:45;;;;;;;22.03;13.97;;;;;;;;;;5020675;28;20314;-76
2021/03/19 03:29:11;;;;;;;26.47;15.53;;;;;;;;;;5021392;28;20771;-76
2021/03/19 03:31:37;;;;;;;26.70;15.70;;;;;;;;;;5038133;28;20228;-75
2021/03/19 03:34:03;;;;;;;24.77;14.33;;;;;;;;;;5020536;28;20707;-76
2021/03/19 03:36:29;;;;;;;33.10;17.47;;;;;;;;;;5020329;28;20477;-76
2021/03/19 03:38:54;;;;;;;27.53;17.67;;;;;;;;;;5020807;28;20472;-77
2021/03/19 03:41:24;;;;;;;25.13;15.33;;;;;;;;;;5035776;28;20224;-77
2021/03/19 03:43:50;;;;;;;29.40;16.73;;;;;;;;;;5037412;28;20229;-77
2021/03/19 03:46:19;;;;;;;27.47;15.30;;;;;;;;;;5037944;28;20457;-76
2021/03/19 03:48:44;;;;;;;29.37;16.27;;;;;;;;;;5037425;28;20228;-77
2021/03/19 03:51:11;;;;;;;27.73;15.70;;;;;;;;;;5038916;28;20548;-75
2021/03/19 03:53:37;;;;;;;21.30;14.17;;;;;;;;;;5039673;28;20218;-77
2021/03/19 03:56:03;;;;;;;26.40;15.97;;;;;;;;;;5039880;28;20499;-77
2021/03/19 03:58:29;;;;;;;29.73;17.60;;;;;;;;;;5037671;28;20477;-77
2021/03/19 04:00:54;;;;;;;25.93;15.80;;;;;;;;;;5038183;28;20766;-75
2021/03/19 04:03:20;;;;;;;29.50;17.40;;;;;;;;;;5037530;28;20221;-77
2021/03/19 04:05:47;;;;;;;30.17;16.60;;;;;;;;;;5037823;28;20243;-76
2021/03/19 04:08:16;;;;;;;31.17;17.50;;;;;;;;;;5021039;28;20218;-76
2021/03/19 04:10:42;;;;;;;26.47;17.97;;;;;;;;;;5038018;28;20456;-76
2021/03/19 04:13:09;;;;;;;25.33;14.00;;;;;;;;;;5036219;28;20487;-76
2021/03/19 04:15:34;;;;;;;22.50;15.10;;;;;;;;;;5020726;28;20300;-76
2021/03/19 04:18:03;;;;;;;22.03;14.27;;;;;;;;;;5038098;28;20488;-77
2021/03/19 04:20:28;;;;;;;21.17;13.50;;;;;;;;;;5020507;28;20598;-77
2021/03/19 04:22:54;;;;;;;25.23;16.10;;;;;;;;;;5020253;28;20526;-76
2021/03/19 04:25:20;;;;;;;23.67;14.37;;;;;;;;;;5036798;28;20544;-77
2021/03/19 04:27:52;;;;;;;27.20;14.20;;;;;;;;;;5036536;28;20606;-76
2021/03/19 04:30:27;;;;;;;26.87;16.70;;;;;;;;;;5036755;28;20596;-77
2021/03/19 04:32:55;;;;;;;29.90;14.90;;;;;;;;;;5019640;28;20464;-77
2021/03/19 04:35:22;;;;;;;23.80;15.37;;;;;;;;;;5019831;28;20543;-76
2021/03/19 04:37:47;;;;;;;25.50;16.17;;;;;;;;;;5028864;28;20494;-76
2021/03/19 04:40:14;;;;;;;29.00;15.50;;;;;;;;;;5020025;28;20457;-77
2021/03/19 04:42:39;;;;;;;31.23;17.50;;;;;;;;;;5011095;28;20490;-76
2021/03/19 04:45:05;;;;;;;32.57;18.10;;;;;;;;;;5035935;28;20477;-76
2021/03/19 04:47:31;;;;;;;24.17;16.07;;;;;;;;;;5036312;28;20217;-76
2021/03/19 04:49:56;;;;;;;27.00;17.27;;;;;;;;;;5019755;28;20464;-76
2021/03/19 04:52:21;;;;;;;32.33;18.23;;;;;;;;;;5036621;28;20285;-76
2021/03/19 04:54:49;;;;;;;25.77;18.30;;;;;;;;;;5037132;28;20559;-77
2021/03/19 04:57:15;;;;;;;22.33;15.77;;;;;;;;;;5036655;28;20626;-77
2021/03/19 04:59:40;;;;;;;28.90;17.20;;;;;;;;;;5037404;28;20465;-77
2021/03/19 05:02:05;;;;;;;22.57;16.23;;;;;;;;;;5036043;28;20223;-76
2021/03/19 05:04:31;;;;;;;28.93;17.67;;;;;;;;;;5036236;28;20598;-77
2021/03/19 05:07:01;;;;;;;23.83;15.67;;;;;;;;;;5035778;28;20300;-76
2021/03/19 05:09:30;;;;;;;22.57;15.80;;;;;;;;;;5036202;28;20258;-76
2021/03/19 05:11:56;;;;;;;22.33;15.53;;;;;;;;;;5035861;28;20468;-76
2021/03/19 05:14:22;;;;;;;21.07;13.50;;;;;;;;;;5036592;28;20461;-76
2021/03/19 05:16:47;;;;;;;18.00;12.93;;;;;;;;;;5036402;28;20217;-75
2021/03/19 05:19:14;;;;;;;20.13;13.97;;;;;;;;;;5035771;28;20236;-77
2021/03/19 05:21:39;;;;;;;20.83;12.63;;;;;;;;;;5036962;28;20229;-76
2021/03/19 05:24:05;;;;;;;21.00;14.53;;;;;;;;;;5036484;28;20470;-76
2021/03/19 05:26:30;;;;;;;17.90;13.80;;;;;;;;;;5037704;28;20214;-82
2021/03/19 05:28:55;;;;;;;21.30;13.20;;;;;;;;;;5036730;28;20300;-76
2021/03/19 05:31:21;;;;;;;22.73;13.33;;;;;;;;;;5037284;28;20218;-79
2021/03/19 05:33:51;;;;;;;23.23;15.13;;;;;;;;;;5036332;28;20611;-78
2021/03/19 05:36:20;;;;;;;21.80;14.23;;;;;;;;;;5013571;28;20295;-80
2021/03/19 05:38:46;;;;;;;19.10;13.53;;;;;;;;;;5004037;28;20479;-78
2021/03/19 05:41:12;;;;;;;24.87;15.00;;;;;;;;;;5000247;28;20462;-76
2021/03/19 05:43:59;;;;;;;17.70;13.70;;;;;;;;;;5025627;28;20222;-75
2021/03/19 05:46:34;;;;;;;19.20;14.93;;;;;;;;;;5006594;28;20681;-76
2021/03/19 05:49:07;;;;;;;19.23;14.63;;;;;;;;;;4999342;28;20461;-76
2021/03/19 05:51:41;;;;;;;21.30;14.37;;;;;;;;;;5016371;28;20502;-75
2021/03/19 05:54:23;;;;;;;18.27;13.77;;;;;;;;;;5015341;28;20462;-76
2021/03/19 05:57:01;;;;;;;20.47;14.07;;;;;;;;;;5016032;28;20886;-77
2021/03/19 05:59:43;;;;;;;18.07;13.83;;;;;;;;;;5015943;28;20902;-76
2021/03/19 06:02:29;;;;;;;17.97;14.33;;;;;;;;;;5015408;28;20693;-76
2021/03/19 06:05:18;;;;;;;22.27;13.60;;;;;;;;;;4999509;28;20458;-76
2021/03/19 06:08:05;;;;;;;19.60;14.47;;;;;;;;;;4998425;28;21680;-76
2021/03/19 06:10:39;;;;;;;17.93;13.33;;;;;;;;;;4980429;28;20465;-76
2021/03/19 06:13:24;;;;;;;25.67;16.13;;;;;;;;;;4995666;28;20452;-75
2021/03/19 06:16:30;;;;;;;21.03;15.73;;;;;;;;;;4995472;28;20478;-76
2021/03/19 06:18:57;;;;;;;14.80;12.60;;;;;;;;;;4996646;28;20469;-76
2021/03/19 06:21:33;;;;;;;16.00;13.33;;;;;;;;;;4995959;28;20471;-77
2021/03/19 06:24:07;;;;;;;18.57;14.30;;;;;;;;;;4978996;28;20459;-76
2021/03/19 06:26:35;;;;;;;18.50;12.90;;;;;;;;;;4997084;28;20458;-76
2021/03/19 06:29:23;;;;;;;18.63;13.30;;;;;;;;;;4999459;28;20466;-76
2021/03/19 06:32:21;;;;;;;19.83;14.23;;;;;;;;;;4999448;28;20467;-76
2021/03/19 06:34:53;;;;;;;20.77;14.50;;;;;;;;;;5009428;28;20914;-76
2021/03/19 06:37:32;;;;;;;18.13;13.43;;;;;;;;;;5039926;28;20488;-76
2021/03/19 06:40:00;;;;;;;19.93;13.10;;;;;;;;;;5038289;28;20544;-76
2021/03/19 06:42:25;;;;;;;19.63;14.50;;;;;;;;;;5033284;28;20483;-76
2021/03/19 06:45:11;;;;;;;17.97;12.60;;;;;;;;;;5011151;28;20474;-77
2021/03/19 06:47:49;;;;;;;18.00;12.40;;;;;;;;;;5018968;28;20298;-76
2021/03/19 06:50:23;;;;;;;17.60;12.20;;;;;;;;;;5019846;28;20695;-76
2021/03/19 06:52:50;;;;;;;16.37;13.30;;;;;;;;;;5019750;28;20452;-76
2021/03/19 06:55:40;;;;;;;14.37;12.40;;;;;;;;;;5018842;28;20592;-76
2021/03/19 06:58:06;;;;;;;19.40;12.93;;;;;;;;;;5018894;28;20458;-76
2021/03/19 07:00:47;;;;;;;16.90;14.67;;;;;;;;;;5018518;28;20457;-76
2021/03/19 07:03:37;;;;;;;15.77;13.27;;;;;;;;;;5001845;28;20206;-76
2021/03/19 07:06:15;;;;;;;16.77;13.33;;;;;;;;;;5001539;28;20477;-77
2021/03/19 07:08:53;;;;;;;16.20;12.60;;;;;;;;;;5019228;28;20921;-76
2021/03/19 07:11:54;;;;;;;18.17;13.23;;;;;;;;;;5019085;28;21441;-77
2021/03/19 07:14:52;;;;;;;12.93;11.63;;;;;;;;;;5016340;28;20445;-76
2021/03/19 07:17:37;;;;;;;13.70;11.03;;;;;;;;;;5002188;28;20449;-76
2021/03/19 07:20:22;;;;;;;13.63;11.50;;;;;;;;;;5017948;28;20504;-76
2021/03/19 07:23:14;;;;;;;14.10;11.70;;;;;;;;;;5014010;28;20460;-76
2021/03/19 07:25:53;;;;;;;13.23;11.80;;;;;;;;;;5004651;28;20467;-77
2021/03/19 07:28:27;;;;;;;15.13;11.77;;;;;;;;;;5018134;28;20744;-76
2021/03/19 07:31:02;;;;;;;15.60;13.13;;;;;;;;;;5012632;28;20512;-76
2021/03/19 07:33:42;;;;;;;13.33;11.87;;;;;;;;;;4999281;28;20466;-76
2021/03/19 07:36:29;;;;;;;16.03;13.17;;;;;;;;;;5002467;28;20491;-76
2021/03/19 07:39:19;;;;;;;17.10;12.50;;;;;;;;;;5037764;28;20900;-76
2021/03/19 07:42:10;;;;;;;16.00;12.10;;;;;;;;;;5042680;28;20456;-76
2021/03/19 07:44:52;;;;;;;13.37;11.10;;;;;;;;;;5017861;28;20931;-76
2021/03/19 07:47:41;;;;;;;15.33;11.80;;;;;;;;;;4984972;28;20774;-77
2021/03/19 07:50:27;;;;;;;12.33;11.03;;;;;;;;;;5001296;28;20727;-76
2021/03/19 07:53:15;;;;;;;12.70;10.60;;;;;;;;;;5000953;28;20513;-77
2021/03/19 07:55:50;;;;;;;14.10;10.27;;;;;;;;;;5017596;28;20454;-77
2021/03/19 07:58:40;;;;;;;15.80;11.70;;;;;;;;;;5020211;28;20467;-77
2021/03/19 08:01:25;;;;;;;14.87;10.60;;;;;;;;;;5004082;28;20437;-76
2021/03/19 08:04:10;;;;;;;14.43;10.97;;;;;;;;;;5037701;28;20468;-76
2021/03/19 08:06:40;;;;;;;11.60;9.87;;;;;;;;;;5020966;28;20481;-77
2021/03/19 08:09:12;;;;;;;17.93;11.63;;;;;;;;;;5003794;28;20446;-78
2021/03/19 08:11:52;;;;;;;13.63;11.37;;;;;;;;;;5021274;28;20469;-77
2021/03/19 08:14:36;;;;;;;11.00;9.37;;;;;;;;;;5004272;28;20461;-76
2021/03/19 08:17:24;;;;;;;12.63;10.07;;;;;;;;;;5020931;28;20462;-77
2021/03/19 08:20:14;;;;;;;11.33;10.13;;;;;;;;;;5020187;28;20467;-77
2021/03/19 08:22:49;;;;;;;11.20;9.70;;;;;;;;;;5038919;28;20452;-78
2021/03/19 08:25:20;;;;;;;13.20;10.30;;;;;;;;;;4984776;28;20484;-77
2021/03/19 08:28:05;;;;;;;16.17;11.43;;;;;;;;;;5001484;28;20548;-77
2021/03/19 08:30:48;;;;;;;12.60;10.13;;;;;;;;;;5001220;28;20922;-75
2021/03/19 08:33:16;;;;;;;11.43;9.33;;;;;;;;;;5018246;28;20484;-77
2021/03/19 08:35:50;;;;;;;11.27;10.13;;;;;;;;;;5024578;28;20452;-77
2021/03/19 08:38:38;;;;;;;11.77;10.03;;;;;;;;;;5027346;28;20460;-77
2021/03/19 08:41:08;;;;;;;15.63;9.13;;;;;;;;;;5055312;28;20834;-77
2021/03/19 08:43:48;;;;;;;13.37;10.87;;;;;;;;;;5044424;28;20472;-78
2021/03/19 08:46:24;;;;;;;18.13;11.27;;;;;;;;;;5054742;28;20433;-78
2021/03/19 08:48:54;;;;;;;11.87;10.03;;;;;;;;;;5037070;28;20485;-79
2021/03/19 08:51:28;;;;;;;12.70;9.10;;;;;;;;;;5021029;28;20445;-78
2021/03/19 08:54:12;;;;;;;11.93;9.00;;;;;;;;;;5050346;28;20514;-77
2021/03/19 08:56:42;;;;;;;11.97;9.03;;;;;;;;;;5042804;28;20484;-77
2021/03/19 08:59:08;;;;;;;13.50;9.83;;;;;;;;;;5024075;28;20457;-76
2021/03/19 09:01:50;;;;;;;15.10;12.20;;;;;;;;;;5021843;28;20463;-78
2021/03/19 09:04:16;;;;;;;18.03;14.90;;;;;;;;;;5041822;28;20231;-77
2021/03/19 09:07:19;;;;;;;15.30;12.73;;;;;;;;;;5005440;28;20469;-76
2021/03/19 09:09:45;;;;;;;20.03;14.70;;;;;;;;;;5034355;28;20508;-77
2021/03/19 09:12:14;;;;;;;16.00;11.33;;;;;;;;;;5017762;28;20880;-77
2021/03/19 09:14:43;;;;;;;18.50;11.87;;;;;;;;;;5017196;28;20463;-77
2021/03/19 09:17:43;;;;;;;15.03;11.80;;;;;;;;;;5035365;28;20515;-77
2021/03/19 09:20:38;;;;;;;15.13;11.67;;;;;;;;;;5011673;28;20453;-77
2021/03/19 09:23:10;;;;;;;13.53;10.93;;;;;;;;;;5003102;28;20460;-78
2021/03/19 09:25:57;;;;;;;11.20;9.70;;;;;;;;;;5037100;28;20465;-78
2021/03/19 09:28:33;;;;;;;10.33;8.90;;;;;;;;;;5019833;28;20953;-78
2021/03/19 09:31:00;;;;;;;12.10;9.07;;;;;;;;;;5019440;28;20464;-77
2021/03/19 09:33:44;;;;;;;9.90;8.00;;;;;;;;;;5020090;28;20830;-76
2021/03/19 09:36:46;;;;;;;7.90;7.10;;;;;;;;;;5037162;28;20448;-77
2021/03/19 09:42:31;;;;;;;9.13;6.27;;;;;;;;;;5008103;28;20438;-76
2021/03/19 09:45:03;;;;;;;7.63;6.50;;;;;;;;;;5036718;28;20897;-77
2021/03/19 09:47:38;;;;;;;10.30;8.03;;;;;;;;;;5036479;28;20223;-75
2021/03/19 09:50:15;;;;;;;7.47;6.37;;;;;;;;;;5019860;28;20460;-76
2021/03/19 09:53:05;;;;;;;8.10;5.73;;;;;;;;;;5018948;28;20471;-75
2021/03/19 09:56:00;;;;;;;8.53;5.93;;;;;;;;;;5035908;28;20473;-75
2021/03/19 09:58:38;;;;;;;6.00;5.40;;;;;;;;;;5017632;28;20763;-75
2021/03/19 10:01:14;;;;;;;8.60;4.77;;;;;;;;;;4994138;28;20469;-76
2021/03/19 10:03:53;;;;;;;9.43;6.43;;;;;;;;;;4999653;28;20481;-75
2021/03/19 10:06:27;;;;;;;6.97;5.90;;;;;;;;;;4997325;28;20697;-75
2021/03/19 10:09:14;;;;;;;6.87;4.73;;;;;;;;;;5022309;28;20458;-75
2021/03/19 10:11:55;;;;;;;7.30;5.23;;;;;;;;;;5006771;28;20538;-75
2021/03/19 10:14:22;;;;;;;5.03;4.63;;;;;;;;;;5022810;28;20900;-76
2021/03/19 10:16:47;;;;;;;5.90;5.10;;;;;;;;;;5022954;28;20466;-75
2021/03/19 10:19:14;;;;;;;4.90;4.07;;;;;;;;;;5022803;28;20455;-74
2021/03/19 10:21:45;;;;;;;5.53;4.33;;;;;;;;;;5039923;28;20220;-75
2021/03/19 10:24:11;;;;;;;6.30;4.07;;;;;;;;;;5022600;28;20480;-75
2021/03/19 10:26:47;;;;;;;5.33;4.20;;;;;;;;;;5005758;28;20457;-74
2021/03/19 10:29:17;;;;;;;6.83;4.23;;;;;;;;;;5022462;28;20844;-74
2021/03/19 10:31:49;;;;;;;5.13;4.37;;;;;;;;;;5022257;28;20442;-75
2021/03/19 10:34:33;;;;;;;5.10;4.33;;;;;;;;;;5022778;28;20464;-74
2021/03/19 10:37:28;;;;;;;3.43;3.13;;;;;;;;;;5026585;28;20450;-74
2021/03/19 10:40:15;;;;;;;5.67;3.57;;;;;;;;;;5002601;28;20548;-75
2021/03/19 10:42:45;;;;;;;6.30;2.70;;;;;;;;;;5007852;28;20860;-74
2021/03/19 10:45:50;;;;;;;6.97;3.20;;;;;;;;;;5022173;28;20453;-76
2021/03/19 10:48:28;;;;;;;5.03;3.20;;;;;;;;;;5028779;28;20449;-77
2021/03/19 10:51:14;;;;;;;3.27;2.57;;;;;;;;;;5039610;28;20452;-77
2021/03/19 10:54:01;;;;;;;3.70;2.43;;;;;;;;;;5038988;28;20480;-76
2021/03/19 10:56:27;;;;;;;5.10;2.80;;;;;;;;;;5038843;28;20868;-77
2021/03/19 10:59:08;;;;;;;4.00;3.37;;;;;;;;;;5025062;28;20462;-76
2021/03/19 11:01:48;;;;;;;5.57;3.57;;;;;;;;;;5005217;28;20467;-76
2021/03/19 11:04:34;;;;;;;4.13;3.10;;;;;;;;;;5021796;28;20722;-77
2021/03/19 11:07:15;;;;;;;7.47;3.67;;;;;;;;;;5038448;28;20475;-76
2021/03/19 11:09:59;;;;;;;4.53;3.00;;;;;;;;;;5038460;28;20811;-77
2021/03/19 11:12:32;;;;;;;4.53;2.83;;;;;;;;;;5022218;28;20461;-75
2021/03/19 11:14:59;;;;;;;4.40;2.80;;;;;;;;;;5021545;28;20513;-75
2021/03/19 11:17:25;;;;;;;3.70;2.77;;;;;;;;;;5022240;28;20476;-77
2021/03/19 11:20:07;;;;;;;4.77;3.07;;;;;;;;;;5001953;28;20464;-77
2021/03/19 11:22:39;;;;;;;4.80;3.17;;;;;;;;;;5020226;28;20218;-76
2021/03/19 11:25:19;;;;;;;3.67;2.20;;;;;;;;;;5022210;28;20457;-76
2021/03/19 11:27:45;;;;;;;2.63;1.93;;;;;;;;;;5038968;28;20823;-76
2021/03/19 11:30:21;;;;;;;5.43;2.40;;;;;;;;;;5022649;28;20488;-77
2021/03/19 11:33:07;;;;;;;4.73;3.10;;;;;;;;;;5039176;28;20233;-75
2021/03/19 11:35:34;;;;;;;4.50;2.20;;;;;;;;;;5022535;28;20466;-76
2021/03/19 11:38:00;;;;;;;3.03;2.10;;;;;;;;;;5042437;28;20517;-77
2021/03/19 11:40:35;;;;;;;4.47;1.63;;;;;;;;;;5024291;28;20828;-77
2021/03/19 11:43:02;;;;;;;2.90;2.40;;;;;;;;;;5004923;28;25116;-77
2021/03/19 11:45:31;;;;;;;3.43;1.97;;;;;;;;;;5021941;28;20496;-77
2021/03/19 11:47:59;;;;;;;3.27;2.27;;;;;;;;;;5041712;28;20441;-78
2021/03/19 11:50:33;;;;;;;5.90;3.23;;;;;;;;;;5044014;28;20456;-78
2021/03/19 11:53:11;;;;;;;7.60;3.03;;;;;;;;;;5024687;28;20956;-77
2021/03/19 11:55:43;;;;;;;3.13;1.80;;;;;;;;;;5040433;28;20464;-78
2021/03/19 11:58:13;;;;;;;3.57;2.17;;;;;;;;;;5021751;28;20464;-77
2021/03/19 12:00:40;;;;;;;2.40;2.20;;;;;;;;;;5022480;28;20553;-77
2021/03/19 12:03:17;;;;;;;2.40;1.67;;;;;;;;;;5038963;28;20473;-78
2021/03/19 12:05:43;;;;;;;3.20;2.73;;;;;;;;;;5005538;28;20472;-77
2021/03/19 12:08:09;;;;;;;4.20;2.27;;;;;;;;;;5008128;28;20456;-77
2021/03/19 12:10:35;;;;;;;2.43;1.80;;;;;;;;;;5027007;28;20212;-77
2021/03/19 12:13:07;;;;;;;3.03;2.13;;;;;;;;;;5026456;28;20217;-78
2021/03/19 12:15:34;;;;;;;3.13;1.87;;;;;;;;;;5010363;28;20472;-77
2021/03/19 12:18:02;;;;;;;4.23;2.00;;;;;;;;;;5027246;28;20905;-77
2021/03/19 12:20:27;;;;;;;5.00;2.60;;;;;;;;;;5007128;28;20468;-77
2021/03/19 12:22:53;;;;;;;2.10;1.87;;;;;;;;;;5015289;28;20758;-77
2021/03/19 12:25:24;;;;;;;4.50;1.97;;;;;;;;;;5006974;28;20221;-78
2021/03/19 12:27:50;;;;;;;1.70;1.33;;;;;;;;;;5024224;28;20499;-76
2021/03/19 12:30:17;;;;;;;4.93;1.70;;;;;;;;;;5026322;28;20762;-76
2021/03/19 12:32:43;;;;;;;3.40;1.57;;;;;;;;;;5024388;28;20468;-76
2021/03/19 12:35:09;;;;;;;1.83;1.73;;;;;;;;;;5022769;28;20818;-77
2021/03/19 12:37:35;;;;;;;3.53;1.90;;;;;;;;;;5006929;28;20229;-78
2021/03/19 12:40:00;;;;;;;2.00;1.53;;;;;;;;;;5023677;28;20471;-78
2021/03/19 12:42:28;;;;;;;2.30;1.60;;;;;;;;;;5040160;28;20212;-77
2021/03/19 12:44:54;;;;;;;4.73;1.87;;;;;;;;;;5021390;28;20226;-76
2021/03/19 12:47:19;;;;;;;2.30;1.53;;;;;;;;;;5040313;28;20459;-78
2021/03/19 12:49:45;;;;;;;3.77;2.53;;;;;;;;;;5022953;28;20582;-77
2021/03/19 12:52:10;;;;;;;2.93;1.70;;;;;;;;;;5041264;28;20611;-77
2021/03/19 12:54:36;;;;;;;3.07;2.00;;;;;;;;;;5040998;28;20307;-77
2021/03/19 12:57:01;;;;;;;3.30;2.77;;;;;;;;;;5039009;28;20614;-76
2021/03/19 12:59:26;;;;;;;3.10;2.03;;;;;;;;;;5040360;28;20218;-79
2021/03/19 13:01:58;;;;;;;1.80;1.70;;;;;;;;;;5023518;28;20233;-75
2021/03/19 13:04:24;;;;;;;2.60;1.87;;;;;;;;;;5038938;28;20436;-76
2021/03/19 13:06:50;;;;;;;2.70;1.50;;;;;;;;;;5021165;28;20471;-77
2021/03/19 13:09:15;;;;;;;2.10;1.33;;;;;;;;;;5020861;28;20277;-78
2021/03/19 13:11:41;;;;;;;3.10;1.90;;;;;;;;;;5021917;28;20287;-77
2021/03/19 13:14:06;;;;;;;3.10;1.50;;;;;;;;;;5039319;28;20224;-78
2021/03/19 13:16:35;;;;;;;2.10;1.47;;;;;;;;;;5022884;28;20276;-76
2021/03/19 13:19:01;;;;;;;1.93;1.60;;;;;;;;;;5027196;28;20225;-77
2021/03/19 13:21:27;;;;;;;3.50;1.53;;;;;;;;;;5008241;28;20610;-78
2021/03/19 13:23:55;;;;;;;1.93;1.60;;;;;;;;;;5038707;28;20340;-77
2021/03/19 13:26:21;;;;;;;3.30;1.77;;;;;;;;;;5029497;28;20449;-77
2021/03/19 13:28:46;;;;;;;4.13;1.87;;;;;;;;;;5006424;28;20501;-77
2021/03/19 13:31:12;;;;;;;3.87;1.97;;;;;;;;;;5021654;28;20233;-77
2021/03/19 13:33:38;;;;;;;2.73;2.10;;;;;;;;;;5021998;28;20262;-76
2021/03/19 13:36:04;;;;;;;2.60;2.03;;;;;;;;;;5021910;28;20232;-76
2021/03/19 13:38:33;;;;;;;4.83;1.90;;;;;;;;;;5022694;28;20224;-77
2021/03/19 13:41:02;;;;;;;2.67;1.77;;;;;;;;;;5004478;28;20465;-76
2021/03/19 13:43:32;;;;;;;2.63;1.73;;;;;;;;;;5022286;28;20481;-76
2021/03/19 13:45:58;;;;;;;4.63;1.80;;;;;;;;;;5012116;28;20756;-76
2021/03/19 13:48:24;;;;;;;3.40;2.20;;;;;;;;;;5028176;28;20452;-75
2021/03/19 13:50:50;;;;;;;5.57;1.80;;;;;;;;;;5034513;28;20217;-76
2021/03/19 13:53:16;;;;;;;3.27;1.80;;;;;;;;;;5025985;28;20963;-76
2021/03/19 13:55:41;;;;;;;2.87;1.57;;;;;;;;;;5044314;28;20236;-75
2021/03/19 13:58:07;;;;;;;5.77;1.40;;;;;;;;;;5046332;28;20471;-76
2021/03/19 14:00:35;;;;;;;2.50;1.50;;;;;;;;;;5028916;28;20228;-75
2021/03/19 14:03:01;;;;;;;3.17;1.83;;;;;;;;;;5027699;28;20398;-76
2021/03/19 14:05:30;;;;;;;2.80;1.40;;;;;;;;;;5027654;28;20457;-75
2021/03/19 14:07:55;;;;;;;3.50;2.13;;;;;;;;;;5011116;28;20215;-76
2021/03/19 14:10:22;;;;;;;2.33;1.37;;;;;;;;;;5026649;28;20510;-75
2021/03/19 14:12:47;;;;;;;1.50;1.33;;;;;;;;;;5028122;28;20315;-77
2021/03/19 14:15:14;;;;;;;1.93;1.50;;;;;;;;;;5011739;28;20493;-77
2021/03/19 14:17:39;;;;;;;1.70;1.40;;;;;;;;;;5028783;28;20562;-76
2021/03/19 14:20:07;;;;;;;1.70;1.40;;;;;;;;;;5044314;28;20485;-76
2021/03/19 14:22:32;;;;;;;2.03;1.40;;;;;;;;;;5011069;28;20606;-76
2021/03/19 14:24:57;;;;;;;2.43;1.77;;;;;;;;;;5010650;28;20470;-76
2021/03/19 14:27:25;;;;;;;5.93;2.30;;;;;;;;;;5026171;28;20296;-77
2021/03/19 14:29:51;;;;;;;5.87;2.03;;;;;;;;;;5044295;28;20347;-76
2021/03/19 14:32:17;;;;;;;2.40;1.73;;;;;;;;;;5011390;28;20462;-77
2021/03/19 14:34:42;;;;;;;3.50;1.87;;;;;;;;;;5027848;28;20261;-76
2021/03/19 14:37:08;;;;;;;2.20;1.53;;;;;;;;;;5027075;28;20923;-77
2021/03/19 14:39:34;;;;;;;5.20;2.87;;;;;;;;;;5027527;28;20480;-76
2021/03/19 14:42:00;;;;;;;3.50;1.63;;;;;;;;;;5027365;28;20534;-77
2021/03/19 14:44:26;;;;;;;3.73;1.90;;;;;;;;;;5025961;28;20462;-76
2021/03/19 14:46:51;;;;;;;2.87;1.60;;;;;;;;;;5027607;28;20867;-76
2021/03/19 14:49:16;;;;;;;3.03;1.70;;;;;;;;;;5010565;28;20214;-77
2021/03/19 14:51:42;;;;;;;3.50;1.50;;;;;;;;;;5010439;28;20229;-77
2021/03/19 14:54:08;;;;;;;3.10;1.57;;;;;;;;;;5009121;28;20576;-76
2021/03/19 14:56:34;;;;;;;3.27;1.67;;;;;;;;;;5008138;28;20453;-77
2021/03/19 14:58:59;;;;;;;2.50;1.50;;;;;;;;;;5024342;28;20481;-78
2021/03/19 15:01:24;;;;;;;3.43;1.93;;;;;;;;;;5007697;28;20242;-77
2021/03/19 15:03:50;;;;;;;5.40;1.70;;;;;;;;;;5008272;28;20224;-76
2021/03/19 15:06:15;;;;;;;2.13;1.40;;;;;;;;;;5046614;28;20228;-75